WetterOnline ( https://www.wetteronline.de )

Wetter aktuell Ostrava

Aktuelles Wetter: Ostrava (260m)

6-stündlich | Neueste Meldungen
Ortszeit Temperatur Wetter
Fr, 06.12. 7:00 -1.3° C bewölkt
Fr, 06.12. 1:00 -1.2° C wolkig
Do, 05.12. 19:00 -0.7° C wolkig
Do, 05.12. 13:00 0.1° C leicht bewölkt
Do, 05.12. 7:00 -2.1° C wolkenlos
Do, 05.12. 1:00 -2.0° C wolkenlos
Mi, 04.12. 19:00 -1.7° C wolkenlos
Mi, 04.12. 13:00 3.4° C leicht bewölkt
Ortszeit Temperatur Wetter
Fr, 06.12. 9:00 -1.1° C bewölkt
Fr, 06.12. 8:30 -1° C bewölkt
Fr, 06.12. 8:00 -1.2° C bewölkt
Fr, 06.12. 7:30 -1° C bedeckt
Fr, 06.12. 7:00 -1.3° C bewölkt
Fr, 06.12. 6:30 -1° C bedeckt
Fr, 06.12. 6:00 -1.3° C bewölkt
Fr, 06.12. 5:30 -1° C bewölkt
Ortszeit Relative Feuchte Sichtweite
Fr, 06.12. 7:00 81% 8 km
Fr, 06.12. 1:00 79% 15 km
Do, 05.12. 19:00 76% 10 km
Do, 05.12. 13:00 70% 13 km
Do, 05.12. 7:00 78% 15 km
Do, 05.12. 1:00 81% 20 km
Mi, 04.12. 19:00 80% 20 km
Mi, 04.12. 13:00 55% 25 km
Ortszeit Relative Feuchte Sichtweite
Fr, 06.12. 9:00 79% 8 km
Fr, 06.12. 8:30 80% 8 km
Fr, 06.12. 8:00 80% 8 km
Fr, 06.12. 7:30 80% 7 km
Fr, 06.12. 7:00 81% 8 km
Fr, 06.12. 6:30 80% >10 km
Fr, 06.12. 6:00 80% 10 km
Fr, 06.12. 5:30 80% >10 km
Ortszeit Niederschlagsmenge Niederschlagsart
Fr, 06.12. 7:00 0.0 l/m2 in 12 Std. -
Fr, 06.12. 1:00 0.0 l/m2 in 6 Std. -
Do, 05.12. 19:00 0.0 l/m2 in 12 Std. -
Do, 05.12. 13:00 0.0 l/m2 in 6 Std. -
Do, 05.12. 7:00 0.0 l/m2 in 12 Std. -
Do, 05.12. 1:00 0.0 l/m2 in 6 Std. -
Mi, 04.12. 19:00 0.0 l/m2 in 12 Std. -
Mi, 04.12. 13:00 0.0 l/m2 in 6 Std. -
Ortszeit Niederschlagsmenge Niederschlagsart
Fr, 06.12. 9:00 0.0 l/m2 in 1 Std. -
Fr, 06.12. 8:30 keine Meldung -
Fr, 06.12. 8:00 0.0 l/m2 in 1 Std. -
Fr, 06.12. 7:30 keine Meldung -
Fr, 06.12. 7:00 0.0 l/m2 in 1 Std. -
Fr, 06.12. 6:30 keine Meldung -
Fr, 06.12. 6:00 0.0 l/m2 in 1 Std. -
Fr, 06.12. 5:30 keine Meldung -
Ortszeit Stärke Spitze Richtung
km/h Bft. km/h Grad Sektor
Fr, 06.12. 7:00 32 5 61 220° SW
Fr, 06.12. 1:00 43 6 61 220° SW
Do, 05.12. 19:00 40 6 58 220° SW
Do, 05.12. 13:00 43 6 58 220° SW
Do, 05.12. 7:00 29 5 43 240° SW
Do, 05.12. 1:00 25 4 - 250° W
Mi, 04.12. 19:00 18 3 - 250° W
Mi, 04.12. 13:00 18 3 - 240° SW
Ortszeit Stärke Spitze Richtung
km/h Bft. km/h Grad Sektor
Fr, 06.12. 9:00 36 5 54 220° SW
Fr, 06.12. 8:30 35 5 - 220° SW
Fr, 06.12. 8:00 40 6 47 220° SW
Fr, 06.12. 7:30 35 5 - 220° SW
Fr, 06.12. 7:00 32 5 61 220° SW
Fr, 06.12. 6:30 41 6 - 220° SW
Fr, 06.12. 6:00 36 5 50 220° SW
Fr, 06.12. 5:30 35 5 - 220° SW
Ortszeit Untergrenze Bedeckung Gattung
total tief tief mittel hoch
Fr, 06.12. 7:00 390 m 7/8 7/8 St - -
Fr, 06.12. 1:00 420 m 6/8 6/8 St - -
Do, 05.12. 19:00 510 m 6/8 6/8 Sc - -
Do, 05.12. 13:00 600 m 4/8 4/8 Sc - -
Do, 05.12. 7:00 - 0/8 0/8 - - -
Do, 05.12. 1:00 - 0/8 0/8 - - -
Mi, 04.12. 19:00 - 0/8 0/8 - - -
Mi, 04.12. 13:00 2100 m 7/8 7/8 - Ac Ci
Ortszeit Bedeckungsgrad in Achtel und Wolkenuntergrenze
Fr, 06.12. 9:00 7(450m)
Fr, 06.12. 8:30 5-7(390m)
Fr, 06.12. 8:00 7(390m)
Fr, 06.12. 7:30 8(390m)
Fr, 06.12. 7:00 7(390m)
Fr, 06.12. 6:30 8(390m)
Fr, 06.12. 6:00 7(390m)
Fr, 06.12. 5:30 5-7(420m)
Ortszeit Luftdruck NN (hPa) Tendenz (hPa in 3 Std.)
Fr, 06.12. 7:00 1023 - 0,1
Fr, 06.12. 1:00 1023 - 1,0
Do, 05.12. 19:00 1025 - 0,1
Do, 05.12. 13:00 1026 - 0,5
Do, 05.12. 7:00 1027 + 0,1
Do, 05.12. 1:00 1028 - 0,6
Mi, 04.12. 19:00 1029 - 0,4
Mi, 04.12. 13:00 1029 - 0,5
Ortszeit Luftdruck NN (hPa) Tendenz (hPa in 3 Std.)
Fr, 06.12. 9:00 1023 + 0,1
Fr, 06.12. 8:30 1021 keine Meldung
Fr, 06.12. 8:00 1023 + 0,3
Fr, 06.12. 7:30 1020 keine Meldung
Fr, 06.12. 7:00 1023 - 0,1
Fr, 06.12. 6:30 1021 keine Meldung
Fr, 06.12. 6:00 1023 - 0,2
Fr, 06.12. 5:30 1020 keine Meldung
Ortszeit Schneehöhe (cm)
Fr, 06.12. 7:00 0
Fr, 06.12. 1:00 -
Do, 05.12. 19:00 -
Do, 05.12. 13:00 -
Do, 05.12. 7:00 -
Do, 05.12. 1:00 -
Mi, 04.12. 19:00 -
Mi, 04.12. 13:00 -
Ortszeit Schneehöhe (cm)
Fr, 06.12. 9:00 -
Fr, 06.12. 8:30 -
Fr, 06.12. 8:00 -
Fr, 06.12. 7:30 -
Fr, 06.12. 7:00 0
Fr, 06.12. 6:30 -
Fr, 06.12. 6:00 -
Fr, 06.12. 5:30 -
Link zu dieser Seite / Seite empfehlen

Das Wetter in ...